Time;durP1;ratioP1;P1;durP2;ratioP2;P2;SDS_P1;SDS_P2;PMS_P1;PMS_P2;Temp;Humidity;BMP_temperature;BMP_pressure;BME280_temperature;BME280_humidity;BME280_pressure;Samples;Min_cycle;Max_cycle;Signal;HPM_P1;HPM_P2
2022/11/30 00:01:10;;;;;;;47.83;24.60;;;;;;;8.42;78.34;101052.84;4179571;28;20067;-71
2022/11/30 00:03:13;;;;;;;57.10;25.10;;;;;;;8.43;78.02;101055.50;4184525;28;20633;-70
2022/11/30 00:05:16;;;;;;;44.47;24.48;;;;;;;8.37;77.78;101053.56;4184538;28;20467;-70
2022/11/30 00:07:19;;;;;;;48.97;24.58;;;;;;;8.35;77.85;101052.66;4182247;28;20044;-70
2022/11/30 00:09:23;;;;;;;44.85;24.48;;;;;;;8.24;78.52;101056.59;4193958;28;20040;-70
2022/11/30 00:11:28;;;;;;;55.47;25.67;;;;;;;8.31;78.74;101055.06;4182819;28;20468;-70
2022/11/30 00:13:31;;;;;;;57.65;26.15;;;;;;;8.28;78.74;101058.47;4192743;28;20139;-71
2022/11/30 00:15:34;;;;;;;48.95;24.92;;;;;;;8.31;78.61;101050.78;4197345;28;20048;-70
2022/11/30 00:17:36;;;;;;;46.35;24.92;;;;;;;8.33;78.18;101051.72;4196036;28;20058;-70
2022/11/30 00:19:39;;;;;;;51.13;24.85;;;;;;;8.35;78.08;101049.16;4196142;28;20038;-71
2022/11/30 00:21:42;;;;;;;44.75;24.48;;;;;;;8.32;78.08;101049.06;4190834;28;20040;-71
2022/11/30 00:23:46;;;;;;;47.70;24.17;;;;;;;8.37;77.99;101052.72;4195820;28;20044;-71
2022/11/30 00:25:50;;;;;;;53.78;23.33;;;;;;;8.33;78.61;101046.53;4179601;28;20041;-71
2022/11/30 00:27:53;;;;;;;47.42;23.17;;;;;;;8.33;78.39;101045.66;4180686;28;20064;-70
2022/11/30 00:29:56;;;;;;;56.45;27.80;;;;;;;8.35;78.56;101042.28;4189452;28;20040;-71
2022/11/30 00:31:59;;;;;;;51.33;25.48;;;;;;;8.37;78.45;101044.94;4189781;28;20045;-70
2022/11/30 00:34:02;;;;;;;57.42;26.70;;;;;;;8.47;77.90;101035.75;4196240;28;20075;-70
2022/11/30 00:36:07;;;;;;;53.92;25.30;;;;;;;8.35;78.21;101038.81;4179321;28;20056;-70
2022/11/30 00:38:10;;;;;;;56.10;26.33;;;;;;;8.35;78.09;101039.69;4195954;28;20052;-70
2022/11/30 00:40:13;;;;;;;46.03;24.70;;;;;;;8.33;78.56;101043.94;4194914;28;20047;-70
2022/11/30 00:42:17;;;;;;;51.60;26.00;;;;;;;8.32;78.34;101047.38;4195873;28;20169;-70
2022/11/30 00:44:20;;;;;;;52.25;24.70;;;;;;;8.35;78.11;101044.88;4190698;28;20132;-70
2022/11/30 00:46:23;;;;;;;51.28;26.45;;;;;;;8.33;77.65;101046.53;4196777;28;20044;-71
2022/11/30 00:48:26;;;;;;;46.25;23.65;;;;;;;8.35;77.56;101044.88;4183619;28;20041;-70
2022/11/30 00:50:29;;;;;;;47.70;24.30;;;;;;;8.31;77.63;101042.13;4187698;28;20039;-71
2022/11/30 00:52:32;;;;;;;49.70;25.08;;;;;;;8.30;77.39;101048.16;4193416;28;20102;-70
2022/11/30 00:54:35;;;;;;;49.88;25.40;;;;;;;8.28;77.51;101047.19;4192717;28;20305;-71
2022/11/30 00:56:37;;;;;;;60.33;27.85;;;;;;;8.22;77.58;101050.50;4193519;28;20040;-70
2022/11/30 00:58:42;;;;;;;46.63;24.02;;;;;;;8.11;78.35;101054.44;4194141;28;20040;-71
2022/11/30 01:00:45;;;;;;;54.50;26.25;;;;;;;8.11;78.60;101057.03;4185505;28;20029;-70
2022/11/30 01:02:47;;;;;;;53.42;26.55;;;;;;;8.11;78.74;101054.44;4189401;28;20119;-70
2022/11/30 01:04:50;;;;;;;53.58;27.25;;;;;;;8.07;78.94;101061.19;4179778;28;20043;-71
2022/11/30 01:06:53;;;;;;;60.30;26.77;;;;;;;8.09;79.13;101056.06;4180397;28;20037;-70
2022/11/30 01:08:56;;;;;;;53.05;27.33;;;;;;;8.16;78.95;101063.22;4195262;28;20036;-70
2022/11/30 01:11:06;;;;;;;53.67;26.50;;;;;;;8.22;78.44;101058.28;4192469;28;20052;-70
2022/11/30 01:13:11;;;;;;;62.80;26.27;;;;;;;8.26;78.48;101070.47;4191238;28;20479;-70
2022/11/30 01:15:15;;;;;;;58.03;25.52;;;;;;;8.21;78.72;101067.72;4190270;28;20044;-71
2022/11/30 01:17:18;;;;;;;62.20;27.88;;;;;;;8.23;78.70;101065.19;4195214;28;20124;-70
2022/11/30 01:19:21;;;;;;;50.75;25.65;;;;;;;8.24;79.02;101068.69;4188254;28;20040;-70
2022/11/30 01:21:26;;;;;;;65.78;29.05;;;;;;;8.23;78.87;101074.69;4189813;28;20098;-69
2022/11/30 01:23:28;;;;;;;44.47;22.33;;;;;;;8.24;78.88;101066.09;4191268;28;20380;-70
2022/11/30 01:25:31;;;;;;;53.45;25.50;;;;;;;8.19;78.88;101073.69;4191287;28;20044;-70
2022/11/30 01:27:34;;;;;;;59.97;26.52;;;;;;;8.26;79.12;101070.47;4178964;28;20045;-70
2022/11/30 01:29:37;;;;;;;56.85;26.25;;;;;;;8.25;79.02;101073.00;4182242;28;20048;-70
2022/11/30 01:31:41;;;;;;;56.15;27.13;;;;;;;8.28;79.14;101068.81;4195486;28;20040;-70
2022/11/30 01:33:48;;;;;;;46.63;25.38;;;;;;;8.30;78.67;101071.47;4195797;28;20094;-70
2022/11/30 01:35:59;;;;;;;54.80;26.63;;;;;;;8.29;78.79;101065.38;4195505;28;20048;-70
2022/11/30 01:38:02;;;;;;;61.35;28.42;;;;;;;8.35;78.45;101070.78;4196662;28;20131;-70
2022/11/30 01:40:06;;;;;;;64.57;27.67;;;;;;;8.35;78.40;101070.78;4193785;28;20574;-70
2022/11/30 01:42:14;;;;;;;53.65;25.17;;;;;;;8.30;78.90;101069.75;4196582;28;20098;-70
2022/11/30 01:44:48;;;;;;;54.42;25.75;;;;;;;8.39;78.21;101067.44;4196068;28;20045;-70
2022/11/30 01:46:55;;;;;;;57.17;27.30;;;;;;;8.33;78.52;101072.44;4195401;28;20060;-70
2022/11/30 01:49:03;;;;;;;66.30;28.80;;;;;;;8.42;77.79;101070.97;4192048;28;20040;-69
2022/11/30 01:51:07;;;;;;;58.28;26.30;;;;;;;8.32;77.96;101069.78;4195291;28;20040;-70
2022/11/30 01:53:11;;;;;;;63.50;29.52;;;;;;;8.23;78.75;101060.00;4196290;28;20048;-70
2022/11/30 01:55:18;;;;;;;52.28;26.17;;;;;;;8.23;79.00;101064.31;4196231;28;20161;-70
2022/11/30 01:57:25;;;;;;;55.17;28.00;;;;;;;8.22;78.95;101073.81;4196816;28;20490;-70
2022/11/30 01:59:30;;;;;;;57.00;27.38;;;;;;;8.25;79.29;101065.22;4196560;28;20041;-70
2022/11/30 02:01:33;;;;;;;59.83;27.70;;;;;;;8.25;79.05;101068.72;4198266;28;20037;-70
2022/11/30 02:03:45;;;;;;;53.58;27.48;;;;;;;8.41;77.70;101069.22;4197491;28;20044;-70
2022/11/30 02:05:49;;;;;;;53.85;27.92;;;;;;;8.30;78.36;101071.47;4194059;28;20056;-70
2022/11/30 02:07:52;;;;;;;52.92;23.83;;;;;;;8.21;78.31;101072.91;4193604;28;20072;-70
2022/11/30 02:09:55;;;;;;;57.83;27.45;;;;;;;8.30;78.59;101067.16;4191508;28;20041;-70
2022/11/30 02:11:59;;;;;;;58.85;30.40;;;;;;;8.35;77.91;101072.47;4197159;28;20036;-69
2022/11/30 02:14:18;;;;;;;54.45;27.70;;;;;;;8.23;78.62;101072.97;4187592;28;20041;-70
2022/11/30 02:16:27;;;;;;;53.60;28.20;;;;;;;8.20;79.03;101067.69;4183798;28;20041;-70
2022/11/30 02:18:36;;;;;;;49.45;25.52;;;;;;;8.26;78.80;101069.59;4188624;28;20469;-70
2022/11/30 02:20:55;;;;;;;52.72;25.95;;;;;;;8.22;79.06;101068.63;4194474;28;20388;-70
2022/11/30 02:23:34;;;;;;;62.38;28.48;;;;;;;8.22;79.19;101073.81;4192038;28;20498;-70
2022/11/30 02:25:52;;;;;;;54.88;27.02;;;;;;;8.24;79.21;101066.09;4183712;28;20136;-71
2022/11/30 02:28:12;;;;;;;60.08;28.48;;;;;;;8.26;79.27;101074.78;4187137;28;20559;-70
2022/11/30 02:30:18;;;;;;;60.40;29.05;;;;;;;8.29;79.03;101069.69;4187444;28;20560;-70
2022/11/30 02:32:25;;;;;;;57.13;29.05;;;;;;;8.33;78.50;101066.38;4198246;28;20082;-70
2022/11/30 02:34:31;;;;;;;63.00;30.55;;;;;;;8.39;78.42;101072.63;4197854;28;20045;-70
2022/11/30 02:36:35;;;;;;;56.40;29.92;;;;;;;8.34;78.41;101073.34;4197241;28;20502;-70
2022/11/30 02:38:39;;;;;;;66.72;30.52;;;;;;;8.29;78.51;101073.16;4193527;28;20063;-70
2022/11/30 02:40:42;;;;;;;64.03;32.95;;;;;;;8.29;78.55;101073.16;4193709;28;20041;-70
2022/11/30 02:42:45;;;;;;;64.25;28.90;;;;;;;8.18;79.04;101077.13;4196864;28;20040;-70
2022/11/30 02:44:51;;;;;;;65.55;30.95;;;;;;;8.21;79.10;101074.63;4197658;28;20805;-70
2022/11/30 02:47:05;;;;;;;59.72;30.95;;;;;;;8.28;78.58;101075.69;4194565;28;20048;-70
2022/11/30 02:49:13;;;;;;;64.13;30.35;;;;;;;8.17;79.20;101080.53;4194930;28;20048;-71
2022/11/30 02:51:19;;;;;;;59.55;28.30;;;;;;;8.14;79.52;101076.13;4192407;28;20032;-71
2022/11/30 02:53:22;;;;;;;59.88;29.30;;;;;;;8.15;79.58;101074.44;4183130;28;20838;-71
2022/11/30 02:55:28;;;;;;;62.65;29.75;;;;;;;8.18;79.49;101077.13;4195909;28;20045;-71
2022/11/30 02:57:31;;;;;;;57.97;29.92;;;;;;;8.21;79.68;101082.41;4194652;28;20037;-71
2022/11/30 02:59:33;;;;;;;65.63;28.70;;;;;;;8.21;79.88;101074.63;4197878;28;20544;-71
2022/11/30 03:01:37;;;;;;;63.85;30.23;;;;;;;8.29;79.50;101075.75;4196693;28;20041;-71
2022/11/30 03:03:42;;;;;;;58.25;30.52;;;;;;;8.30;79.51;101082.69;4179250;28;20411;-71
2022/11/30 03:05:44;;;;;;;68.55;31.17;;;;;;;8.36;79.24;101074.25;4197754;28;20039;-71
2022/11/30 03:07:47;;;;;;;64.15;31.58;;;;;;;8.31;79.45;101078.38;4191376;28;20104;-71
2022/11/30 03:09:50;;;;;;;62.05;30.67;;;;;;;8.32;79.58;101074.97;4185865;28;20036;-71
2022/11/30 03:11:53;;;;;;;65.38;29.60;;;;;;;8.27;79.55;101076.53;4181804;28;20128;-71
2022/11/30 03:13:56;;;;;;;64.45;28.30;;;;;;;8.21;80.11;101080.69;4184948;28;20037;-71
2022/11/30 03:16:05;;;;;;;70.65;32.47;;;;;;;8.32;79.66;101080.16;4196157;28;20090;-71
2022/11/30 03:18:08;;;;;;;66.35;32.53;;;;;;;8.38;79.31;101081.25;4180314;28;20052;-71
2022/11/30 03:20:13;;;;;;;68.22;32.53;;;;;;;8.33;79.34;101085.38;4193446;28;20065;-71
2022/11/30 03:22:16;;;;;;;62.70;27.60;;;;;;;8.30;79.66;101085.28;4188228;28;20485;-71
2022/11/30 03:24:18;;;;;;;66.63;30.73;;;;;;;8.26;79.87;101083.41;4180619;28;20091;-71
2022/11/30 03:26:21;;;;;;;69.00;32.13;;;;;;;8.35;79.39;101083.75;4194209;28;20029;-71
2022/11/30 03:28:24;;;;;;;63.60;30.67;;;;;;;8.32;79.27;101086.25;4196785;28;20469;-71
2022/11/30 03:30:27;;;;;;;64.93;31.33;;;;;;;8.33;79.33;101080.22;4197964;28;20037;-71
2022/11/30 03:32:30;;;;;;;62.70;30.98;;;;;;;8.27;78.94;101087.78;4197772;28;20036;-70
2022/11/30 03:34:33;;;;;;;70.35;33.90;;;;;;;8.26;79.21;101091.19;4189240;28;20592;-71
2022/11/30 03:36:37;;;;;;;72.65;32.85;;;;;;;8.30;79.21;101092.19;4196048;28;20040;-71
2022/11/30 03:38:40;;;;;;;73.03;32.50;;;;;;;8.24;79.17;101087.69;4197811;28;20041;-71
2022/11/30 03:40:43;;;;;;;65.93;31.75;;;;;;;8.21;79.58;101095.34;4196652;28;20043;-71
2022/11/30 03:42:46;;;;;;;65.13;30.55;;;;;;;8.32;79.31;101091.41;4197704;28;20482;-70
2022/11/30 03:44:49;;;;;;;68.65;33.08;;;;;;;8.21;79.24;101088.44;4186599;28;20041;-70
2022/11/30 03:46:52;;;;;;;62.22;29.17;;;;;;;8.21;79.64;101087.56;4196396;28;20403;-71
2022/11/30 03:48:55;;;;;;;66.25;31.70;;;;;;;8.21;79.26;101087.56;4197707;28;20099;-70
2022/11/30 03:50:58;;;;;;;65.80;32.20;;;;;;;8.21;79.16;101088.44;4197628;28;20040;-70
2022/11/30 03:53:02;;;;;;;76.55;32.30;;;;;;;8.17;79.40;101086.56;4196956;28;20384;-70
2022/11/30 03:55:06;;;;;;;67.13;29.80;;;;;;;8.11;79.83;101085.50;4188480;28;20410;-71
2022/11/30 03:57:08;;;;;;;66.80;32.35;;;;;;;8.11;79.81;101085.50;4196645;28;20048;-70
2022/11/30 03:59:11;;;;;;;68.78;31.50;;;;;;;8.11;79.86;101090.69;4196398;28;20468;-71
2022/11/30 04:01:16;;;;;;;71.18;32.97;;;;;;;8.10;80.23;101091.50;4182390;28;20048;-70
2022/11/30 04:03:19;;;;;;;64.75;31.17;;;;;;;8.11;80.11;101088.09;4182866;28;20738;-70
2022/11/30 04:05:22;;;;;;;62.00;29.63;;;;;;;8.10;80.42;101078.56;4190337;28;20036;-70
2022/11/30 04:07:24;;;;;;;72.60;31.58;;;;;;;8.17;80.14;101088.28;4193652;28;20036;-71
2022/11/30 04:09:29;;;;;;;63.55;30.65;;;;;;;8.22;80.13;101094.53;4187489;28;20490;-71
2022/11/30 04:11:32;;;;;;;60.83;31.85;;;;;;;8.22;80.10;101097.13;4196705;28;20037;-70
2022/11/30 04:13:36;;;;;;;71.75;31.58;;;;;;;8.20;79.95;101090.97;4187358;28;20052;-70
2022/11/30 04:15:39;;;;;;;69.07;31.65;;;;;;;8.21;80.19;101093.63;4187125;28;20044;-70
2022/11/30 04:17:42;;;;;;;69.10;32.38;;;;;;;8.29;79.98;101095.59;4196974;28;20521;-71
2022/11/30 04:19:45;;;;;;;68.25;30.98;;;;;;;8.28;79.76;101092.13;4194417;28;20036;-71
2022/11/30 04:21:47;;;;;;;65.95;31.02;;;;;;;8.26;79.98;101090.31;4180695;28;20047;-71
2022/11/30 04:23:50;;;;;;;69.78;31.83;;;;;;;8.33;79.58;101090.56;4183971;28;20052;-70
2022/11/30 04:25:54;;;;;;;65.55;29.38;;;;;;;8.30;79.62;101089.59;4188436;28;20037;-71
2022/11/30 04:27:57;;;;;;;71.00;32.63;;;;;;;8.34;79.04;101092.34;4197231;28;20046;-71
2022/11/30 04:30:00;;;;;;;60.72;27.40;;;;;;;8.24;79.48;101086.81;4190985;28;20033;-70
2022/11/30 04:32:03;;;;;;;62.40;29.45;;;;;;;8.32;79.44;101090.53;4178423;28;20037;-71
2022/11/30 04:34:06;;;;;;;69.90;31.38;;;;;;;8.31;79.20;101089.66;4178590;28;20068;-71
2022/11/30 04:36:17;;;;;;;71.55;32.72;;;;;;;8.28;79.33;101093.81;4193997;28;20457;-71
2022/11/30 04:38:20;;;;;;;55.80;26.52;;;;;;;8.19;79.95;101094.41;4195399;28;20048;-70
2022/11/30 04:40:23;;;;;;;66.55;29.17;;;;;;;8.16;79.96;101095.19;4182303;28;20041;-70
2022/11/30 04:42:27;;;;;;;72.82;31.02;;;;;;;8.19;80.29;101090.13;4192804;28;20502;-70
2022/11/30 04:44:30;;;;;;;68.55;28.58;;;;;;;8.22;80.19;101094.53;4189085;28;20036;-71
2022/11/30 04:46:33;;;;;;;58.70;29.05;;;;;;;8.31;79.40;101089.66;4187410;28;20036;-71
2022/11/30 04:48:36;;;;;;;67.25;31.20;;;;;;;8.33;79.36;101094.88;4191213;28;20119;-70
2022/11/30 04:50:39;;;;;;;67.47;31.67;;;;;;;8.29;79.31;101101.66;4190963;28;20486;-71
2022/11/30 04:52:42;;;;;;;67.40;30.23;;;;;;;8.28;79.52;101097.31;4185791;28;20035;-72
2022/11/30 04:54:44;;;;;;;69.15;29.40;;;;;;;8.26;79.51;101088.59;4194740;28;20040;-72
2022/11/30 04:56:48;;;;;;;56.45;27.17;;;;;;;8.20;79.60;101093.56;4196303;28;20047;-73
2022/11/30 04:58:52;;;;;;;56.25;28.48;;;;;;;8.21;80.06;101090.16;4197054;28;20068;-72
2022/11/30 05:00:55;;;;;;;64.47;31.00;;;;;;;8.19;80.14;101092.72;4186487;28;20053;-72
2022/11/30 05:02:57;;;;;;;64.30;27.95;;;;;;;8.23;80.24;101096.25;4181677;28;20047;-72
2022/11/30 05:05:00;;;;;;;62.78;30.27;;;;;;;8.24;80.09;101097.16;4196002;28;20044;-72
2022/11/30 05:07:03;;;;;;;70.38;32.85;;;;;;;8.35;79.77;101096.69;4180421;28;20037;-72
2022/11/30 05:09:06;;;;;;;66.95;31.08;;;;;;;8.36;79.01;101092.38;4191561;28;20048;-72
2022/11/30 05:11:09;;;;;;;67.57;32.40;;;;;;;8.40;78.59;101094.25;4189360;28;20056;-72
2022/11/30 05:13:12;;;;;;;61.72;28.75;;;;;;;8.27;79.15;101092.97;4195592;28;20036;-72
2022/11/30 05:15:16;;;;;;;71.18;33.13;;;;;;;8.31;79.06;101092.25;4181273;28;20111;-73
2022/11/30 05:17:19;;;;;;;67.03;29.33;;;;;;;8.22;79.40;101094.53;4192133;28;20048;-72
2022/11/30 05:19:22;;;;;;;69.90;29.65;;;;;;;8.28;79.51;101105.09;4185591;28;20452;-71
2022/11/30 05:21:25;;;;;;;71.00;31.15;;;;;;;8.28;79.08;101094.72;4188243;28;20044;-72
2022/11/30 05:23:28;;;;;;;65.43;30.38;;;;;;;8.29;79.16;101100.78;4188768;28;20381;-74
2022/11/30 05:25:30;;;;;;;63.72;29.70;;;;;;;8.24;79.27;101098.03;4189889;28;20036;-73
2022/11/30 05:27:34;;;;;;;65.88;31.30;;;;;;;8.26;79.22;101105.84;4196326;28;20045;-73
2022/11/30 05:29:37;;;;;;;70.68;30.63;;;;;;;8.23;79.21;101106.63;4188729;28;20099;-73
2022/11/30 05:31:41;;;;;;;71.70;31.70;;;;;;;8.29;78.84;101104.25;4184226;28;20040;-70
2022/11/30 05:33:43;;;;;;;69.85;31.27;;;;;;;8.28;78.63;101104.19;4190899;28;20079;-69
2022/11/30 05:35:46;;;;;;;64.55;30.30;;;;;;;8.21;78.93;101103.13;4195530;28;20102;-69
2022/11/30 05:37:49;;;;;;;66.78;29.13;;;;;;;8.16;79.22;101102.06;4183875;28;20044;-69
2022/11/30 05:39:52;;;;;;;64.97;31.70;;;;;;;8.15;79.28;101111.56;4199648;28;20087;-70
2022/11/30 05:41:55;;;;;;;61.95;25.65;;;;;;;8.09;79.36;101103.56;4193077;28;20059;-70
2022/11/30 05:43:58;;;;;;;69.07;32.00;;;;;;;8.14;79.70;101103.72;4198757;28;20402;-69
2022/11/30 05:46:01;;;;;;;70.05;32.70;;;;;;;8.19;79.93;101109.94;4197011;28;20044;-69
2022/11/30 05:48:06;;;;;;;64.05;30.73;;;;;;;8.15;79.87;101108.97;4193370;28;20401;-70
2022/11/30 05:50:09;;;;;;;59.72;28.33;;;;;;;8.13;80.16;101110.63;4198170;28;20138;-70
2022/11/30 05:52:12;;;;;;;67.60;28.52;;;;;;;8.20;79.76;101111.72;4198266;28;20041;-70
2022/11/30 05:54:15;;;;;;;63.90;32.35;;;;;;;8.23;79.53;101116.13;4198828;28;20044;-70
2022/11/30 05:56:20;;;;;;;63.13;29.88;;;;;;;8.23;79.65;101111.81;4199604;28;20041;-70
2022/11/30 05:58:23;;;;;;;66.30;29.90;;;;;;;8.21;79.50;101109.16;4194527;28;20040;-70
2022/11/30 06:00:26;;;;;;;66.18;31.52;;;;;;;8.21;79.52;101113.47;4199373;28;20110;-70
2022/11/30 06:02:29;;;;;;;59.58;27.73;;;;;;;8.16;79.94;101112.44;4199397;28;20401;-70
2022/11/30 06:04:34;;;;;;;69.47;29.25;;;;;;;8.19;80.06;101115.13;4198556;28;20131;-70
2022/11/30 06:06:37;;;;;;;;;;;;;;;8.14;79.96;101116.69;4199929;28;20667;-70
2022/11/30 06:08:40;;;;;;;62.92;27.25;;;;;;;8.15;80.16;101114.16;4199336;28;19920;-70
2022/11/30 06:10:43;;;;;;;59.85;28.58;;;;;;;8.23;80.21;101117.00;4191012;28;20479;-70
2022/11/30 06:12:45;;;;;;;64.90;27.77;;;;;;;8.22;80.08;101120.44;4188466;28;20037;-70
2022/11/30 06:14:49;;;;;;;62.80;28.58;;;;;;;8.23;80.22;101117.00;4190064;28;20064;-70
2022/11/30 06:16:52;;;;;;;59.83;26.65;;;;;;;8.30;79.24;101113.78;4182672;28;20036;-70
2022/11/30 06:18:55;;;;;;;58.45;29.83;;;;;;;8.30;79.47;101123.28;4182681;28;20526;-70
2022/11/30 06:21:01;;;;;;;64.75;28.92;;;;;;;8.30;79.23;101107.72;4183505;28;20044;-69
2022/11/30 06:23:05;;;;;;;62.15;30.15;;;;;;;8.28;79.44;101119.72;4198961;28;20040;-70
2022/11/30 06:25:08;;;;;;;62.45;31.00;;;;;;;8.31;79.35;101114.66;4198563;28;20044;-70
2022/11/30 06:27:10;;;;;;;70.13;30.23;;;;;;;8.29;79.31;101117.19;4197717;28;20047;-69
2022/11/30 06:29:13;;;;;;;70.07;32.05;;;;;;;8.20;79.61;101122.06;4197733;28;20063;-70
2022/11/30 06:31:16;;;;;;;61.13;30.45;;;;;;;8.19;80.08;101122.88;4196808;28;20059;-69
2022/11/30 06:33:23;;;;;;;61.08;28.58;;;;;;;8.28;79.58;101125.81;4193968;28;20043;-69
2022/11/30 06:35:26;;;;;;;62.75;32.65;;;;;;;8.24;79.65;101120.47;4198900;28;20094;-69
2022/11/30 06:37:33;;;;;;;61.88;31.35;;;;;;;8.27;79.31;101118.00;4189032;28;20036;-69
2022/11/30 06:39:36;;;;;;;66.25;29.90;;;;;;;8.25;79.40;101119.63;4197682;28;20075;-70
2022/11/30 06:41:59;;;;;;;59.85;29.50;;;;;;;8.23;79.71;101118.72;4197260;28;20541;-69
2022/11/30 06:44:02;;;;;;;59.38;26.77;;;;;;;8.26;79.74;101122.28;4196752;28;20097;-69
2022/11/30 06:46:06;;;;;;;64.97;29.73;;;;;;;8.31;79.46;101115.56;4196405;28;20041;-69
2022/11/30 06:48:09;;;;;;;59.88;29.20;;;;;;;8.26;79.53;101118.81;4191902;28;20102;-69
2022/11/30 06:50:13;;;;;;;54.25;28.73;;;;;;;8.31;79.37;101109.47;4198691;28;20049;-69
2022/11/30 06:52:21;;;;;;;73.28;32.30;;;;;;;8.31;79.40;101114.66;4198673;28;20503;-69
2022/11/30 06:54:26;;;;;;;69.72;31.55;;;;;;;8.30;79.29;101116.38;4179999;28;20037;-69
2022/11/30 06:56:28;;;;;;;64.25;28.65;;;;;;;8.26;79.64;101124.00;4197355;28;20102;-69
2022/11/30 06:58:31;;;;;;;62.55;27.10;;;;;;;8.20;79.90;101117.75;4196292;28;20037;-69
2022/11/30 07:00:35;;;;;;;65.72;29.05;;;;;;;8.27;79.83;101128.34;4198365;28;20449;-69
2022/11/30 07:02:38;;;;;;;63.90;30.20;;;;;;;8.30;79.62;101128.44;4198435;28;20412;-69
2022/11/30 07:04:40;;;;;;;64.93;29.58;;;;;;;8.31;79.30;101127.59;4179808;28;20048;-69
2022/11/30 07:06:43;;;;;;;69.88;30.63;;;;;;;8.27;79.57;101129.22;4193078;28;20087;-69
2022/11/30 07:08:46;;;;;;;68.25;31.15;;;;;;;8.25;79.35;101130.00;4197953;28;20123;-69
2022/11/30 07:10:50;;;;;;;70.22;31.48;;;;;;;8.16;79.93;101130.56;4181837;28;20099;-69
2022/11/30 07:12:53;;;;;;;60.00;28.58;;;;;;;8.33;79.15;101132.00;4181787;28;20087;-69
2022/11/30 07:14:56;;;;;;;64.78;30.65;;;;;;;8.22;79.10;101130.78;4181492;28;20029;-69
2022/11/30 07:17:03;;;;;;;63.92;29.67;;;;;;;8.20;79.32;101137.59;4196786;28;20048;-69
2022/11/30 07:19:06;;;;;;;59.78;28.10;;;;;;;8.14;79.48;101138.28;4198241;28;20044;-69
2022/11/30 07:21:09;;;;;;;74.03;30.33;;;;;;;8.18;79.68;101137.56;4196900;28;20048;-69
2022/11/30 07:27:55;;;;;;;71.57;31.60;;;;;;;8.26;79.15;101130.03;4190366;28;20045;-70
2022/11/30 07:29:58;;;;;;;65.60;30.55;;;;;;;8.24;79.23;101136.88;4198068;28;20090;-69
2022/11/30 07:32:03;;;;;;;67.85;31.17;;;;;;;8.26;79.47;101126.59;4197914;28;20040;-68
2022/11/30 07:34:07;;;;;;;77.38;33.22;;;;;;;8.24;79.19;101134.31;4195961;28;20032;-69
2022/11/30 07:36:11;;;;;;;60.47;28.88;;;;;;;8.20;79.32;101129.84;4197936;28;20036;-68
2022/11/30 07:38:14;;;;;;;71.78;34.55;;;;;;;8.24;79.50;101133.44;4194874;28;20044;-69
2022/11/30 07:40:17;;;;;;;65.07;31.38;;;;;;;8.22;79.43;101130.78;4196640;28;20047;-69
2022/11/30 07:42:21;;;;;;;70.57;32.63;;;;;;;8.22;79.41;101130.78;4191214;28;20037;-69
2022/11/30 07:44:26;;;;;;;60.55;30.90;;;;;;;8.18;79.94;101139.28;4192701;28;20398;-69
2022/11/30 07:46:30;;;;;;;72.05;33.58;;;;;;;8.21;79.67;101134.19;4197496;28;20071;-69
2022/11/30 07:48:34;;;;;;;60.42;30.77;;;;;;;8.23;79.63;101135.13;4196525;28;20052;-69
2022/11/30 07:50:36;;;;;;;62.22;29.35;;;;;;;8.23;79.74;101137.72;4187508;28;20421;-70
2022/11/30 07:52:39;;;;;;;77.47;33.58;;;;;;;8.28;80.01;101141.34;4197628;28;20037;-69
2022/11/30 07:54:42;;;;;;;70.53;32.05;;;;;;;8.34;79.80;101145.88;4196122;28;20036;-69
2022/11/30 07:56:45;;;;;;;71.63;32.05;;;;;;;8.29;79.92;101140.50;4196430;28;20040;-69
2022/11/30 07:58:49;;;;;;;58.08;28.92;;;;;;;8.28;80.15;101146.53;4197588;28;20044;-69
2022/11/30 08:00:53;;;;;;;57.92;28.77;;;;;;;8.33;79.96;101154.47;4181940;28;20037;-68
2022/11/30 08:02:56;;;;;;;66.10;31.77;;;;;;;8.37;79.87;101157.22;4197459;28;20556;-69
2022/11/30 08:04:59;;;;;;;60.22;30.15;;;;;;;8.33;79.59;101157.91;4196733;28;20048;-69
2022/11/30 08:07:02;;;;;;;60.95;30.70;;;;;;;8.36;79.68;101154.56;4197409;28;20124;-69
2022/11/30 08:09:06;;;;;;;61.45;30.23;;;;;;;8.34;79.83;101162.28;4197470;28;20090;-69
2022/11/30 08:11:11;;;;;;;61.92;30.10;;;;;;;8.34;79.85;101159.69;4192008;28;20033;-69
2022/11/30 08:13:14;;;;;;;73.05;30.05;;;;;;;8.32;80.16;101157.88;4195767;28;20028;-69
2022/11/30 08:15:17;;;;;;;67.13;31.33;;;;;;;8.35;80.08;101151.09;4197210;28;20037;-69
2022/11/30 08:17:24;;;;;;;60.80;30.70;;;;;;;8.38;80.22;101147.72;4179605;28;20544;-69
2022/11/30 08:19:27;;;;;;;55.08;24.52;;;;;;;8.37;80.33;101161.50;4197419;28;20498;-69
2022/11/30 08:21:31;;;;;;;67.28;31.08;;;;;;;8.35;80.55;101153.69;4197252;28;20044;-69
2022/11/30 08:23:36;;;;;;;55.30;29.52;;;;;;;8.43;80.32;101161.72;4191033;28;20079;-69
2022/11/30 08:25:39;;;;;;;53.47;28.05;;;;;;;8.42;80.34;101159.94;4197180;28;20032;-69
2022/11/30 08:27:42;;;;;;;67.05;30.08;;;;;;;8.51;79.77;101160.31;4197234;28;20048;-69
2022/11/30 08:29:45;;;;;;;58.00;32.45;;;;;;;8.45;80.05;101165.25;4189457;28;20110;-69
2022/11/30 08:31:48;;;;;;;73.45;30.95;;;;;;;8.47;79.80;101165.31;4195621;28;20036;-69
2022/11/30 08:33:56;;;;;;;70.63;30.08;;;;;;;8.46;79.87;101168.75;4179627;28;20141;-69
2022/11/30 08:36:06;;;;;;;62.83;31.63;;;;;;;8.60;78.96;101164.03;4189772;28;20071;-69
2022/11/30 08:38:09;;;;;;;61.83;29.60;;;;;;;8.51;79.12;101168.09;4197198;28;20045;-69
2022/11/30 08:40:12;;;;;;;60.30;31.20;;;;;;;8.47;79.26;101170.50;4194926;28;20047;-69
2022/11/30 08:42:15;;;;;;;57.92;30.30;;;;;;;8.46;79.64;101177.41;4197024;28;20131;-69
2022/11/30 08:44:18;;;;;;;53.60;28.83;;;;;;;8.44;79.57;101175.53;4196572;28;20037;-69
2022/11/30 08:46:22;;;;;;;61.60;29.70;;;;;;;8.41;79.84;101181.53;4195710;28;20092;-69
2022/11/30 08:48:45;;;;;;;57.47;26.90;;;;;;;8.53;79.76;101178.50;4195671;28;20120;-69
2022/11/30 08:50:50;;;;;;;56.80;29.27;;;;;;;8.47;79.75;101174.00;4196933;28;20052;-69
2022/11/30 08:52:54;;;;;;;56.25;27.33;;;;;;;8.53;79.41;101184.56;4190998;28;20028;-69
2022/11/30 08:54:56;;;;;;;55.58;27.73;;;;;;;8.56;79.30;101186.38;4196114;28;20093;-69
2022/11/30 08:56:59;;;;;;;50.83;27.15;;;;;;;8.53;79.41;101188.88;4197022;28;20036;-69
2022/11/30 08:59:02;;;;;;;53.90;28.77;;;;;;;8.48;79.63;101185.22;4196919;28;20044;-69
2022/11/30 09:01:06;;;;;;;55.45;27.63;;;;;;;8.49;79.73;101184.41;4197025;28;20044;-69
2022/11/30 09:03:09;;;;;;;58.42;26.90;;;;;;;8.47;79.39;101184.34;4191528;28;20044;-69
2022/11/30 09:05:12;;;;;;;53.45;27.20;;;;;;;8.46;79.89;101187.75;4197715;28;20058;-69
2022/11/30 09:07:18;;;;;;;45.83;26.45;;;;;;;8.51;79.97;101188.81;4200349;28;20067;-69
2022/11/30 09:09:21;;;;;;;52.92;27.83;;;;;;;8.52;79.54;101187.09;4200273;28;20090;-69
2022/11/30 09:11:26;;;;;;;48.05;25.85;;;;;;;8.52;79.56;101189.69;4192091;28;20029;-69
2022/11/30 09:13:28;;;;;;;55.17;27.08;;;;;;;8.52;79.25;101181.91;4199295;28;20461;-69
2022/11/30 09:15:32;;;;;;;55.60;28.00;;;;;;;8.49;79.56;101189.59;4200096;28;20037;-69
2022/11/30 09:17:36;;;;;;;47.35;25.58;;;;;;;8.47;79.59;101194.72;4200397;28;20119;-69
2022/11/30 09:19:39;;;;;;;52.50;27.75;;;;;;;8.49;79.57;101189.59;4199539;28;20040;-69
2022/11/30 09:21:41;;;;;;;50.63;27.05;;;;;;;8.54;79.38;101195.78;4199240;28;20036;-69
2022/11/30 09:23:55;;;;;;;61.47;27.90;;;;;;;8.46;79.54;101197.25;4182757;28;20550;-69
2022/11/30 09:25:59;;;;;;;50.00;24.75;;;;;;;8.62;79.07;101199.53;4198844;28;20062;-70
2022/11/30 09:28:02;;;;;;;51.10;23.90;;;;;;;8.53;79.19;101194.06;4183438;28;20072;-69
2022/11/30 09:30:11;;;;;;;51.70;26.70;;;;;;;8.37;79.89;101197.78;4183490;28;20569;-69
2022/11/30 09:32:14;;;;;;;50.72;24.75;;;;;;;8.42;80.14;101205.72;4181672;28;20036;-69
2022/11/30 09:34:17;;;;;;;49.65;27.08;;;;;;;8.46;79.83;101205.03;4194421;28;20097;-69
2022/11/30 09:36:22;;;;;;;52.40;25.83;;;;;;;8.43;79.89;101204.91;4182002;28;20077;-69